Coffman Cove, Alaska
Current Conditions -  °F | °C
As of 1:53 PM on Thursday 18 Dec 2014 (Local Time) from PAKW Reporting Station
Overcast Overcast  
Wind Chill: 36°   Ceiling: 4700
Heat Index: 43°   Visibility: 10mi
Dew Point: 35°   Wind: 13mph
Humidity: 74%   Direction: 60°ENE
Pressure: 29.25"   Gusts: 26mph
Location:  56.01°N, 132.83°W
Report Text: PAKW 182253Z AUTO 06011G23KT 10SM OVC047 06/02 A2925 RMK AO2 RAB02E26 SLP905 P0000 T00610017 TSNO
Loading
Personal Weather Stations






























Interactive Weather Map New forecast layout! Learn more

10-Day Weather Forecast

Advertisements
Track Severe Weather on mobile